Time;durP1;ratioP1;P1;durP2;ratioP2;P2;SDS_P1;SDS_P2;PMS_P1;PMS_P2;Temp;Humidity;BMP_temperature;BMP_pressure;BME280_temperature;BME280_humidity;BME280_pressure;Samples;Min_cycle;Max_cycle;Signal;HPM_P1;HPM_P2
2023/04/25 00:03:02;;;;;;;2.90;2.15;;;;;;;12.29;68.07;98765.09;7763629;32;38645;-85
2023/04/25 00:07:19;;;;;;;5.35;2.72;;;;;;;12.48;67.78;98756.75;7767992;32;37126;-86
2023/04/25 00:11:36;;;;;;;2.67;2.05;;;;;;;12.59;66.95;98744.44;7767646;32;39178;-84
2023/04/25 00:15:53;;;;;;;3.47;2.00;;;;;;;12.83;66.27;98741.41;7769007;32;40040;-86
2023/04/25 00:20:10;;;;;;;13.57;2.72;;;;;;;12.94;65.44;98742.75;7767545;32;37952;-87
2023/04/25 00:24:27;;;;;;;2.47;2.05;;;;;;;12.89;64.99;98744.81;7767146;32;38275;-87
2023/04/25 00:28:43;;;;;;;5.03;2.78;;;;;;;12.30;67.13;98734.72;7749390;32;39442;-86
2023/04/25 00:32:59;;;;;;;5.12;2.80;;;;;;;12.17;67.51;98741.03;7740281;32;39930;-87
2023/04/25 00:37:16;;;;;;;4.47;2.92;;;;;;;11.78;69.30;98742.38;7750049;32;37877;-87
2023/04/25 00:41:32;;;;;;;4.68;2.70;;;;;;;11.95;69.03;98737.16;7766181;32;36975;-86
2023/04/25 00:45:50;;;;;;;4.00;2.70;;;;;;;12.19;67.84;98738.81;7754080;32;40513;-86
2023/04/25 00:50:08;;;;;;;4.07;2.70;;;;;;;11.78;69.39;98726.00;7739100;32;41048;-86
2023/04/25 00:54:25;;;;;;;4.72;2.90;;;;;;;12.15;68.07;98726.88;7739063;32;38627;-87
2023/04/25 00:58:42;;;;;;;3.95;3.00;;;;;;;12.06;67.70;98726.00;7758140;32;37438;-87
2023/04/25 01:02:59;;;;;;;5.90;3.40;;;;;;;11.92;68.32;98721.37;7766154;32;39410;-85
2023/04/25 01:07:16;;;;;;;6.15;3.40;;;;;;;12.21;67.07;98720.16;7754012;32;40889;-87
2023/04/25 01:11:33;;;;;;;5.15;3.37;;;;;;;11.93;68.27;98733.09;7738761;32;38609;-87
2023/04/25 01:15:49;;;;;;;7.03;3.55;;;;;;;12.14;67.34;98725.25;7738346;32;37672;-87
2023/04/25 01:20:07;;;;;;;4.70;3.05;;;;;;;12.18;67.41;98723.53;7765842;32;40151;-86
2023/04/25 01:24:23;;;;;;;5.95;3.47;;;;;;;12.00;67.55;98734.31;7765437;32;39998;-87
2023/04/25 01:28:41;;;;;;;4.90;3.05;;;;;;;12.15;67.23;98735.87;7754952;32;38854;-87
2023/04/25 01:32:58;;;;;;;5.47;3.35;;;;;;;11.78;68.16;98732.31;7765737;32;37586;-88
2023/04/25 01:37:16;;;;;;;6.40;3.50;;;;;;;11.97;67.90;98726.72;7767097;32;39317;-85
2023/04/25 01:41:34;;;;;;;5.82;3.15;;;;;;;12.08;67.42;98726.50;7767657;32;39977;-87
2023/04/25 01:45:51;;;;;;;6.57;3.40;;;;;;;11.86;68.07;98736.22;7752134;32;38055;-85
2023/04/25 01:50:09;;;;;;;5.47;2.90;;;;;;;11.83;67.49;98731.34;7766259;32;37912;-87
2023/04/25 01:54:25;;;;;;;5.68;3.20;;;;;;;11.92;67.40;98724.12;7764180;32;39000;-87
2023/04/25 01:58:41;;;;;;;7.78;3.53;;;;;;;12.00;67.29;98734.31;7764122;32;40840;-86
2023/04/25 02:03:01;;;;;;;5.87;3.60;;;;;;;12.05;67.24;98735.31;7765669;32;38028;-86
2023/04/25 02:07:17;;;;;;;5.95;3.70;;;;;;;11.60;68.41;98739.47;7754339;32;37862;-86
2023/04/25 02:11:34;;;;;;;7.50;3.40;;;;;;;11.77;67.78;98738.84;7737582;32;39244;-86
2023/04/25 02:15:50;;;;;;;5.90;3.67;;;;;;;11.60;67.93;98727.75;7738518;32;40778;-87
2023/04/25 02:20:07;;;;;;;5.72;3.45;;;;;;;11.64;68.10;98723.28;7765609;32;37922;-86
2023/04/25 02:24:23;;;;;;;8.00;3.55;;;;;;;11.98;66.89;98725.59;7765374;32;37062;-87
2023/04/25 02:28:40;;;;;;;4.85;3.62;;;;;;;11.84;66.94;98720.13;7763136;32;39233;-88
2023/04/25 02:32:56;;;;;;;5.37;3.58;;;;;;;11.91;66.42;98725.22;7764947;32;40991;-85
2023/04/25 02:37:13;;;;;;;5.95;3.25;;;;;;;11.62;67.68;98720.06;7754708;32;38422;-87
2023/04/25 02:41:29;;;;;;;4.78;3.12;;;;;;;11.71;66.95;98714.69;7737931;32;37894;-87
2023/04/25 02:45:46;;;;;;;6.37;3.67;;;;;;;11.46;67.80;98716.84;7738335;32;39599;-87
2023/04/25 02:50:02;;;;;;;4.75;3.35;;;;;;;11.79;67.24;98719.44;7737755;32;40881;-88
2023/04/25 02:54:19;;;;;;;8.38;4.05;;;;;;;11.48;68.59;98722.00;7736363;32;37629;-86
2023/04/25 02:58:35;;;;;;;8.05;4.65;;;;;;;11.50;68.65;98720.56;7738385;32;37217;-86
2023/04/25 03:02:52;;;;;;;7.85;4.50;;;;;;;11.46;69.07;98719.56;7763224;32;39421;-85
2023/04/25 03:07:08;;;;;;;7.07;4.53;;;;;;;11.55;68.93;98711.47;7752608;32;40012;-87
2023/04/25 03:11:26;;;;;;;6.68;4.03;;;;;;;11.41;69.57;98714.22;7737307;32;38698;-85
2023/04/25 03:15:43;;;;;;;8.95;4.50;;;;;;;11.13;71.46;98703.31;7739083;32;37132;-87
2023/04/25 03:19:59;;;;;;;7.20;4.50;;;;;;;11.05;70.74;98712.16;7737127;32;39058;-86
2023/04/25 03:24:15;;;;;;;7.53;4.80;;;;;;;10.94;71.35;98710.75;7740106;32;40087;-86
2023/04/25 03:28:32;;;;;;;9.50;4.60;;;;;;;11.14;70.65;98715.00;7759332;32;38655;-88
2023/04/25 03:32:48;;;;;;;8.05;4.07;;;;;;;11.01;71.33;98717.41;7766731;32;36993;-85
2023/04/25 03:37:04;;;;;;;7.82;4.68;;;;;;;10.89;71.15;98715.19;7756187;32;39378;-87
2023/04/25 03:41:21;;;;;;;8.68;4.90;;;;;;;10.94;71.09;98717.00;7739863;32;40782;-85
2023/04/25 03:45:37;;;;;;;6.70;4.30;;;;;;;10.58;72.23;98730.44;7740822;32;38437;-86
2023/04/25 03:49:53;;;;;;;6.60;4.35;;;;;;;10.92;71.55;98729.31;7766599;32;37137;-87
2023/04/25 03:54:10;;;;;;;8.32;4.97;;;;;;;10.93;71.08;98730.94;7766647;32;39295;-88
2023/04/25 03:58:26;;;;;;;8.30;4.82;;;;;;;10.40;73.01;98734.81;7747396;32;40786;-87
2023/04/25 04:02:43;;;;;;;8.45;4.72;;;;;;;10.68;71.93;98725.63;7739549;32;37974;-86
2023/04/25 04:07:00;;;;;;;8.15;4.65;;;;;;;10.77;71.37;98728.47;7739446;32;37871;-86
2023/04/25 04:11:17;;;;;;;8.48;4.80;;;;;;;10.69;71.37;98735.44;7738127;32;39050;-84
2023/04/25 04:15:33;;;;;;;6.43;4.60;;;;;;;10.95;70.56;98732.28;7739252;32;39752;-85
2023/04/25 04:19:49;;;;;;;6.72;3.95;;;;;;;10.63;71.21;98733.91;7738210;32;38068;-85
2023/04/25 04:24:06;;;;;;;7.53;4.47;;;;;;;10.01;73.70;98739.44;7739376;32;37066;-87
2023/04/25 04:28:23;;;;;;;8.75;4.93;;;;;;;10.46;71.92;98728.97;7739024;32;39276;-86
2023/04/25 04:32:39;;;;;;;9.45;4.30;;;;;;;10.22;72.67;98726.31;7738612;32;40576;-86
2023/04/25 04:36:55;;;;;;;10.73;4.50;;;;;;;10.17;72.64;98736.50;7738795;32;38706;-86
2023/04/25 04:41:12;;;;;;;8.95;4.75;;;;;;;10.41;72.37;98736.44;7739018;32;37891;-87
2023/04/25 04:45:28;;;;;;;11.02;4.65;;;;;;;10.44;72.44;98735.84;7738912;32;39007;-87
2023/04/25 04:49:45;;;;;;;7.05;4.47;;;;;;;10.52;72.16;98738.72;7738849;32;39608;-87
2023/04/25 04:54:02;;;;;;;7.40;4.43;;;;;;;10.29;72.93;98739.56;7739081;32;37569;-86
2023/04/25 04:58:18;;;;;;;9.10;5.10;;;;;;;10.42;72.78;98743.50;7738719;32;37228;-86
2023/04/25 05:02:34;;;;;;;7.32;4.80;;;;;;;10.11;73.89;98749.38;7738976;32;39420;-87
2023/04/25 05:06:51;;;;;;;8.05;4.82;;;;;;;10.69;71.86;98745.50;7738354;32;40009;-87
2023/04/25 05:11:08;;;;;;;11.45;4.75;;;;;;;10.52;72.38;98757.78;7738593;32;37891;-87
2023/04/25 05:15:24;;;;;;;9.75;5.43;;;;;;;10.71;71.81;98746.06;7738493;32;37973;-86
2023/04/25 05:19:41;;;;;;;9.93;5.05;;;;;;;10.30;73.23;98747.47;7738537;32;39284;-86
2023/04/25 05:23:57;;;;;;;8.82;4.90;;;;;;;10.69;71.83;98757.25;7738601;32;39703;-88
2023/04/25 05:28:13;;;;;;;9.45;5.12;;;;;;;10.62;71.63;98753.28;7738206;32;37897;-85
2023/04/25 05:32:30;;;;;;;6.60;4.60;;;;;;;10.29;72.81;98756.72;7738606;32;36973;-86
2023/04/25 05:36:48;;;;;;;9.15;5.25;;;;;;;10.44;72.54;98761.16;7737102;32;40148;-87
2023/04/25 05:41:04;;;;;;;10.32;5.53;;;;;;;10.60;72.60;98758.22;7738197;32;40204;-87
2023/04/25 05:45:20;;;;;;;7.75;5.20;;;;;;;10.17;74.21;98758.28;7736126;32;39010;-87
2023/04/25 05:49:37;;;;;;;8.32;5.07;;;;;;;10.25;73.48;98752.19;7738053;32;36814;-86
2023/04/25 05:53:53;;;;;;;8.20;5.43;;;;;;;10.55;72.55;98758.28;7738018;32;39536;-86
2023/04/25 05:58:10;;;;;;;9.80;5.85;;;;;;;10.36;72.84;98756.38;7737493;32;40057;-86
2023/04/25 06:02:26;;;;;;;8.02;5.28;;;;;;;10.56;72.52;98763.44;7738132;32;37884;-87
2023/04/25 06:06:43;;;;;;;7.78;5.12;;;;;;;10.55;72.48;98752.84;7737721;32;36809;-87
2023/04/25 06:10:59;;;;;;;9.02;5.72;;;;;;;10.60;72.24;98756.28;7737874;32;38998;-87
2023/04/25 06:15:15;;;;;;;8.73;5.62;;;;;;;10.42;73.19;98755.22;7737611;32;40769;-86
2023/04/25 06:19:44;;;;;;;10.13;5.57;;;;;;;10.55;72.47;98755.56;7738057;32;37876;-87
2023/04/25 06:24:00;;;;;;;9.00;5.93;;;;;;;10.79;71.65;98758.97;7738130;32;37008;-87
2023/04/25 06:28:16;;;;;;;9.48;5.90;;;;;;;10.59;72.87;98754.69;7737776;32;39513;-85
2023/04/25 06:32:34;;;;;;;8.70;5.57;;;;;;;10.37;73.11;98759.94;7737783;32;39653;-86
2023/04/25 06:36:50;;;;;;;8.65;5.10;;;;;;;10.93;71.74;98752.75;7737907;32;38075;-87
2023/04/25 06:41:06;;;;;;;7.72;5.37;;;;;;;11.15;70.88;98750.19;7737589;32;37066;-86
2023/04/25 06:45:23;;;;;;;8.02;5.43;;;;;;;11.19;71.10;98759.37;7745167;32;39507;-87
2023/04/25 06:49:39;;;;;;;8.80;5.32;;;;;;;11.50;70.08;98750.59;7764373;32;40555;-87
2023/04/25 06:53:55;;;;;;;8.88;5.72;;;;;;;11.62;70.78;98737.28;7750138;32;38093;-86
2023/04/25 06:58:12;;;;;;;8.27;5.03;;;;;;;11.57;70.76;98737.38;7737084;32;37788;-87
2023/04/25 07:02:28;;;;;;;8.93;5.43;;;;;;;11.74;70.11;98733.19;7737817;32;39410;-86
2023/04/25 07:06:47;;;;;;;7.47;5.00;;;;;;;11.92;68.82;98737.78;7760549;32;39577;-86
2023/04/25 07:11:03;;;;;;;7.37;5.12;;;;;;;12.26;68.50;98732.91;7763964;32;37338;-84
2023/04/25 07:15:20;;;;;;;8.45;5.28;;;;;;;12.33;67.83;98733.28;7741279;32;37044;-84
2023/04/25 07:19:37;;;;;;;9.90;5.32;;;;;;;12.24;67.56;98725.03;7737411;32;39311;-82
2023/04/25 07:23:54;;;;;;;8.80;5.30;;;;;;;12.14;69.77;98742.47;7754036;32;40773;-88
2023/04/25 07:28:10;;;;;;;10.02;5.47;;;;;;;12.55;67.64;98729.78;7751226;32;38522;-86
2023/04/25 07:32:26;;;;;;;8.00;4.95;;;;;;;12.42;67.87;98731.47;7761196;32;37245;-85
2023/04/25 07:36:43;;;;;;;10.20;4.75;;;;;;;12.39;66.50;98729.34;7756906;32;38995;-85
2023/04/25 07:40:59;;;;;;;7.60;5.30;;;;;;;12.24;67.31;98733.22;7759250;32;40183;-85
2023/04/25 07:45:16;;;;;;;8.70;5.20;;;;;;;12.37;67.14;98732.38;7763162;32;37807;-85
2023/04/25 07:49:36;;;;;;;7.60;4.97;;;;;;;12.18;66.64;98738.00;7762508;32;37877;-85
2023/04/25 07:53:52;;;;;;;8.00;5.30;;;;;;;12.61;65.32;98734.00;7763513;32;40183;-76
2023/04/25 07:58:09;;;;;;;8.82;5.18;;;;;;;12.43;66.78;98732.25;7762247;32;39958;-85
2023/04/25 08:02:28;;;;;;;9.73;5.68;;;;;;;12.86;65.62;98732.53;7760925;32;38567;-86
2023/04/25 08:06:45;;;;;;;9.90;4.87;;;;;;;12.55;65.50;98735.25;7762349;32;37182;-83
2023/04/25 08:11:01;;;;;;;8.45;5.12;;;;;;;12.93;64.15;98737.56;7765351;32;39426;-86
2023/04/25 08:15:18;;;;;;;9.48;5.05;;;;;;;12.97;65.25;98738.59;7775832;32;39921;-86
2023/04/25 08:19:34;;;;;;;8.85;5.35;;;;;;;13.26;64.00;98737.25;7751752;32;37831;-85
2023/04/25 08:23:50;;;;;;;9.52;4.50;;;;;;;13.19;62.86;98740.44;7766275;32;37793;-82
2023/04/25 08:28:07;;;;;;;7.43;4.68;;;;;;;13.35;64.36;98735.41;7766907;32;39245;-83
2023/04/25 08:32:23;;;;;;;7.65;4.85;;;;;;;12.88;63.63;98745.91;7770630;32;39708;-82
2023/04/25 08:36:39;;;;;;;6.03;4.12;;;;;;;13.61;63.20;98748.41;7765528;32;37992;-82
2023/04/25 08:40:56;;;;;;;7.28;3.97;;;;;;;13.58;61.96;98749.81;7766726;32;37772;-83
2023/04/25 08:45:12;;;;;;;9.52;4.70;;;;;;;13.55;60.97;98757.88;7775386;32;39449;-83
2023/04/25 08:49:29;;;;;;;6.15;4.32;;;;;;;13.75;61.71;98753.75;7760437;32;39757;-83
2023/04/25 08:53:47;;;;;;;6.47;4.15;;;;;;;13.45;62.45;98761.69;7766365;32;38552;-82
2023/04/25 08:58:09;;;;;;;5.90;3.97;;;;;;;13.77;61.04;98756.97;7753647;32;37866;-85
2023/04/25 09:02:26;;;;;;;6.43;4.05;;;;;;;13.76;60.52;98760.84;7763999;32;37721;-84
2023/04/25 09:06:43;;;;;;;5.78;4.10;;;;;;;13.49;61.56;98768.16;7752204;32;40870;-85
2023/04/25 09:10:59;;;;;;;5.75;3.67;;;;;;;14.10;60.12;98765.59;7766464;32;37507;-85
2023/04/25 09:15:15;;;;;;;4.43;3.12;;;;;;;14.21;60.48;98766.91;7789008;32;37068;-85
2023/04/25 09:19:39;;;;;;;4.32;3.17;;;;;;;14.06;59.09;98773.63;7778836;32;39386;-84
2023/04/25 09:23:59;;;;;;;4.47;3.35;;;;;;;14.51;58.69;98766.28;7765655;32;39608;-84
2023/04/25 09:28:15;;;;;;;4.00;2.83;;;;;;;14.27;58.74;98765.59;7761331;32;36228;-85
2023/04/25 09:32:32;;;;;;;3.70;2.45;;;;;;;14.53;57.79;98767.53;7778942;32;37840;-88
2023/04/25 09:36:48;;;;;;;4.75;2.10;;;;;;;14.04;57.21;98772.34;7749552;32;40064;-88
2023/04/25 09:41:05;;;;;;;3.50;2.03;;;;;;;14.69;55.37;98750.63;7748534;32;39889;-87
2023/04/25 09:45:22;;;;;;;3.95;1.87;;;;;;;14.83;55.76;98757.56;7777895;32;38450;-84
2023/04/25 09:49:41;;;;;;;1.48;1.30;;;;;;;15.19;53.83;98761.00;7774536;32;37073;-86
2023/04/25 09:53:57;;;;;;;1.60;1.27;;;;;;;15.02;52.04;98757.19;7765097;32;40004;-86
2023/04/25 09:58:14;;;;;;;1.50;1.37;;;;;;;14.53;54.01;98772.22;7775631;32;39921;-85
2023/04/25 10:02:32;;;;;;;2.28;1.20;;;;;;;14.96;53.21;98774.16;7752015;32;37928;-86
2023/04/25 10:06:50;;;;;;;2.03;1.20;;;;;;;14.65;52.46;98778.69;7753768;32;35843;-86
2023/04/25 10:11:08;;;;;;;1.27;1.17;;;;;;;14.70;51.03;98774.19;7736877;32;39376;-86
2023/04/25 10:15:25;;;;;;;1.50;1.40;;;;;;;14.64;51.31;98784.50;7751756;32;40061;-88
2023/04/25 10:19:41;;;;;;;3.58;1.40;;;;;;;14.81;52.82;98759.00;7738091;32;37650;-89
2023/04/25 10:23:58;;;;;;;4.78;1.37;;;;;;;14.96;52.46;98763.97;7761408;32;37000;-84
2023/04/25 10:28:14;;;;;;;1.20;1.10;;;;;;;15.15;52.38;98763.63;7757165;32;39283;-85
2023/04/25 10:32:33;;;;;;;1.17;1.10;;;;;;;15.52;49.98;98763.16;7759174;32;39902;-87
2023/04/25 10:36:55;;;;;;;1.98;1.00;;;;;;;15.65;50.08;98762.12;7763322;32;37792;-85
2023/04/25 10:41:12;;;;;;;4.43;1.17;;;;;;;15.96;48.85;98763.78;7747297;32;37176;-85
2023/04/25 10:45:29;;;;;;;1.00;0.90;;;;;;;15.74;48.67;98759.34;7749559;32;39838;-78
2023/04/25 10:49:50;;;;;;;0.82;0.82;;;;;;;16.10;49.75;98760.78;7762438;32;40103;-76
2023/04/25 10:54:08;;;;;;;0.93;0.93;;;;;;;16.27;47.06;98768.13;7742500;32;37908;-78
2023/04/25 10:58:25;;;;;;;0.95;0.90;;;;;;;16.64;48.18;98762.78;7737263;32;38178;-79
2023/04/25 11:02:51;;;;;;;1.05;0.95;;;;;;;16.98;47.63;98755.38;7716535;32;40019;-78
2023/04/25 11:07:17;;;;;;;1.27;1.12;;;;;;;16.67;45.27;98764.88;7754531;32;40866;-79
2023/04/25 11:11:36;;;;;;;1.27;1.17;;;;;;;17.37;46.35;98753.19;7735795;32;37870;-78
2023/04/25 11:15:52;;;;;;;0.65;0.65;;;;;;;17.85;45.79;98754.34;7735838;32;36012;-79
2023/04/25 11:20:28;;;;;;;1.30;0.70;;;;;;;18.09;43.60;98755.50;7736943;32;40004;-82
2023/04/25 11:24:45;;;;;;;1.00;0.90;;;;;;;18.77;42.40;98760.25;7736802;32;41205;-78
2023/04/25 11:29:02;;;;;;;1.58;1.00;;;;;;;18.56;40.30;98765.97;7735313;32;37959;-78
2023/04/25 11:33:23;;;;;;;0.88;0.80;;;;;;;18.87;40.02;98758.97;7736205;32;37941;-79
2023/04/25 11:37:40;;;;;;;0.60;0.60;;;;;;;19.43;40.61;98764.41;7736592;32;39381;-78
2023/04/25 11:41:57;;;;;;;0.60;0.60;;;;;;;19.52;37.30;98766.97;7736084;32;39593;-78
2023/04/25 11:46:16;;;;;;;3.40;0.80;;;;;;;19.01;39.86;98770.41;7738052;32;38455;-79
2023/04/25 11:50:32;;;;;;;1.62;1.00;;;;;;;18.62;38.75;98786.63;7740059;32;37852;-79
2023/04/25 11:54:49;;;;;;;1.55;1.10;;;;;;;18.14;39.62;98797.44;7737224;32;39091;-79
2023/04/25 11:59:06;;;;;;;0.93;0.93;;;;;;;17.02;41.24;98806.69;7765488;32;39797;-77
2023/04/25 12:03:26;;;;;;;1.52;1.10;;;;;;;16.80;42.13;98815.25;7746372;32;38808;-78
2023/04/25 12:07:43;;;;;;;2.17;0.95;;;;;;;17.24;41.15;98808.22;7739625;32;37855;-79
2023/04/25 12:12:03;;;;;;;2.05;1.20;;;;;;;17.12;40.64;98815.66;7744133;32;39225;-80
2023/04/25 12:16:20;;;;;;;2.42;1.12;;;;;;;16.92;40.56;98812.63;7738349;32;39890;-79
2023/04/25 12:20:36;;;;;;;1.98;1.15;;;;;;;17.55;42.77;98800.62;7738123;32;38779;-79
2023/04/25 12:24:53;;;;;;;1.45;1.30;;;;;;;17.77;40.29;98813.16;7738396;32;37020;-80
2023/04/25 12:29:21;;;;;;;1.55;1.30;;;;;;;18.84;39.97;98806.63;7739444;32;39400;-79
2023/04/25 12:33:39;;;;;;;1.83;1.23;;;;;;;19.38;37.08;98789.53;7759974;32;39965;-80
2023/04/25 12:37:56;;;;;;;1.45;1.23;;;;;;;18.76;36.21;98792.59;7765141;32;36991;-80
2023/04/25 12:42:12;;;;;;;1.42;1.10;;;;;;;20.23;37.69;98770.69;7766165;32;37847;-80
2023/04/25 12:46:29;;;;;;;2.85;1.33;;;;;;;19.60;35.76;98765.22;7766117;32;40007;-81
2023/04/25 12:50:48;;;;;;;2.28;1.30;;;;;;;19.94;35.56;98754.56;7766097;32;40824;-80
2023/04/25 12:55:05;;;;;;;5.90;1.17;;;;;;;20.57;32.67;98757.16;7765393;32;38481;-81
2023/04/25 12:59:22;;;;;;;1.37;1.12;;;;;;;20.80;33.77;98745.41;7765983;32;36958;-81
2023/04/25 13:03:38;;;;;;;4.30;1.40;;;;;;;21.11;30.66;98744.41;7765954;32;39286;-77
2023/04/25 13:07:55;;;;;;;2.90;1.25;;;;;;;21.25;31.32;98752.16;7765804;32;40661;-81
2023/04/25 13:12:11;;;;;;;1.50;1.20;;;;;;;21.17;29.99;98753.19;7758986;32;37977;-83
2023/04/25 13:16:27;;;;;;;2.85;1.25;;;;;;;22.10;29.60;98743.63;7751214;32;37859;-83
2023/04/25 13:20:44;;;;;;;4.28;1.62;;;;;;;21.66;28.74;98740.59;7738681;32;39274;-83
2023/04/25 13:25:00;;;;;;;3.35;1.45;;;;;;;22.61;28.53;98738.78;7738670;32;39996;-82
2023/04/25 13:29:17;;;;;;;4.47;1.30;;;;;;;22.90;29.11;98733.56;7738592;32;37942;-82
2023/04/25 13:33:33;;;;;;;1.77;1.10;;;;;;;23.51;28.29;98720.25;7738517;32;36690;-69
2023/04/25 13:37:49;;;;;;;2.75;1.37;;;;;;;23.74;28.24;98720.03;7736046;32;40137;-69
2023/04/25 13:42:06;;;;;;;2.90;1.20;;;;;;;23.45;26.58;98722.59;7736697;32;39419;-67
2023/04/25 13:46:22;;;;;;;1.45;0.98;;;;;;;23.55;28.32;98719.09;7747430;32;37860;-90
2023/04/25 13:50:41;;;;;;;1.33;1.10;;;;;;;23.51;28.18;98723.84;7753582;32;36481;-89
2023/04/25 13:54:58;;;;;;;0.88;0.88;;;;;;;23.80;27.52;98724.03;7739880;32;40184;-88
2023/04/25 13:59:14;;;;;;;1.62;1.10;;;;;;;23.50;25.52;98716.69;7745823;32;40279;-89
2023/04/25 14:03:31;;;;;;;0.80;0.80;;;;;;;23.72;26.01;98711.28;7745166;32;38743;-88
2023/04/25 14:07:47;;;;;;;1.58;1.10;;;;;;;23.72;24.83;98716.84;7757246;32;37123;-90
2023/04/25 14:12:04;;;;;;;2.12;1.00;;;;;;;24.25;23.30;98710.84;7764565;32;40033;-90
2023/04/25 14:16:20;;;;;;;0.88;0.88;;;;;;;24.24;24.66;98714.81;7764618;32;40039;-90
2023/04/25 14:20:37;;;;;;;1.15;1.02;;;;;;;23.94;24.62;98718.63;7764430;32;38494;-90
2023/04/25 14:24:54;;;;;;;2.20;1.30;;;;;;;24.23;26.46;98715.19;7763518;32;36956;-91
2023/04/25 14:29:13;;;;;;;2.17;0.88;;;;;;;24.22;24.92;98706.06;7764479;32;39414;-90
2023/04/25 14:33:30;;;;;;;3.40;1.00;;;;;;;23.94;24.21;98713.06;7763233;32;40716;-89
2023/04/25 14:37:46;;;;;;;2.08;1.05;;;;;;;23.79;23.97;98722.47;7763138;32;38767;-89
2023/04/25 14:42:03;;;;;;;4.37;1.23;;;;;;;23.69;24.82;98709.28;7764166;32;37050;-88
2023/04/25 14:46:21;;;;;;;2.03;1.10;;;;;;;23.43;24.45;98713.84;7764437;32;39495;-89
2023/04/25 14:50:38;;;;;;;2.55;1.00;;;;;;;22.85;24.69;98729.13;7738718;32;38842;-89
2023/04/25 14:54:54;;;;;;;1.10;1.00;;;;;;;23.05;24.22;98725.00;7736804;32;37882;-88
2023/04/25 14:59:11;;;;;;;9.05;1.50;;;;;;;21.66;25.18;98724.78;7723262;32;37655;-89
2023/04/25 15:03:27;;;;;;;1.50;1.17;;;;;;;20.87;26.72;98734.44;7737014;32;39465;-89
2023/04/25 15:07:44;;;;;;;7.53;1.45;;;;;;;19.91;27.66;98738.72;7742944;32;39874;-90
2023/04/25 15:12:01;;;;;;;2.08;1.20;;;;;;;19.62;28.34;98746.31;7751963;32;38064;-89
2023/04/25 15:16:18;;;;;;;2.30;1.30;;;;;;;18.83;30.38;98747.03;7736211;32;36936;-88
2023/04/25 15:20:37;;;;;;;2.12;1.23;;;;;;;18.84;30.36;98757.72;7742507;32;39327;-88
2023/04/25 15:24:55;;;;;;;2.55;1.23;;;;;;;18.28;31.19;98747.44;7765296;32;39808;-89
2023/04/25 15:29:11;;;;;;;2.65;1.37;;;;;;;18.11;31.39;98753.19;7766583;32;38601;-89
2023/04/25 15:33:27;;;;;;;2.20;1.65;;;;;;;17.99;32.98;98757.59;7766691;32;37778;-89
2023/04/25 15:37:45;;;;;;;3.08;1.67;;;;;;;17.79;32.46;98742.75;7755016;32;39240;-88
2023/04/25 15:42:01;;;;;;;1.95;1.65;;;;;;;17.61;32.48;98749.66;7739216;32;40533;-78
2023/04/25 15:46:18;;;;;;;2.53;1.75;;;;;;;17.56;34.24;98752.63;7739428;32;37813;-88
2023/04/25 15:50:36;;;;;;;3.37;2.00;;;;;;;17.77;33.64;98752.53;7739412;32;37057;-86
2023/04/25 15:54:52;;;;;;;3.17;1.75;;;;;;;17.52;34.37;98746.97;7747975;32;40165;-87
2023/04/25 15:59:09;;;;;;;1.92;1.60;;;;;;;17.89;34.25;98748.97;7747175;32;41017;-88
2023/04/25 16:03:26;;;;;;;4.68;2.47;;;;;;;17.69;35.94;98756.97;7759596;32;37795;-87
2023/04/25 16:07:44;;;;;;;4.00;2.50;;;;;;;17.20;36.38;98768.75;7755049;32;37083;-88
2023/04/25 16:12:01;;;;;;;3.03;2.15;;;;;;;16.67;39.04;98773.94;7744117;32;40156;-87
2023/04/25 16:16:17;;;;;;;2.85;2.45;;;;;;;16.38;40.22;98779.50;7753806;32;40653;-87
2023/04/25 16:20:34;;;;;;;5.47;2.33;;;;;;;16.07;41.14;98767.75;7753802;32;37761;-87
2023/04/25 16:24:51;;;;;;;5.65;2.37;;;;;;;15.64;41.64;98771.50;7740106;32;37191;-88
2023/04/25 16:29:07;;;;;;;6.43;2.20;;;;;;;15.40;42.07;98770.16;7736970;32;40154;-86
2023/04/25 16:33:24;;;;;;;4.20;1.92;;;;;;;15.57;41.10;98773.97;7739142;32;40021;-87
2023/04/25 16:37:41;;;;;;;2.45;1.85;;;;;;;15.46;41.88;98776.28;7739981;32;38445;-86
2023/04/25 16:41:57;;;;;;;3.35;2.15;;;;;;;15.69;42.13;98771.31;7739082;32;36846;-87
2023/04/25 16:46:13;;;;;;;3.80;2.10;;;;;;;15.95;42.69;98776.72;7742093;32;39422;-88
2023/04/25 16:50:30;;;;;;;2.47;1.87;;;;;;;16.11;42.14;98774.19;7766229;32;39894;-88
2023/04/25 16:54:46;;;;;;;4.03;1.85;;;;;;;16.45;41.73;98766.84;7765748;32;37961;-88
2023/04/25 16:59:02;;;;;;;3.33;1.85;;;;;;;16.76;39.90;98770.31;7766000;32;37059;-87
2023/04/25 17:03:19;;;;;;;3.78;1.87;;;;;;;17.30;38.28;98774.97;7764878;32;39034;-88
2023/04/25 17:07:36;;;;;;;3.00;1.77;;;;;;;18.17;35.13;98773.87;7765809;32;40847;-88
2023/04/25 17:11:52;;;;;;;6.37;2.17;;;;;;;18.22;35.39;98770.88;7765685;32;38635;-87
2023/04/25 17:16:10;;;;;;;3.08;1.60;;;;;;;17.80;35.98;98782.94;7765713;32;37869;-87
2023/04/25 17:20:27;;;;;;;3.58;1.95;;;;;;;17.49;36.86;98794.53;7765826;32;38246;-87
2023/04/25 17:24:43;;;;;;;2.10;1.70;;;;;;;16.99;38.81;98809.28;7764586;32;39863;-87
2023/04/25 17:28:59;;;;;;;3.72;2.10;;;;;;;16.96;38.38;98804.47;7765654;32;38818;-87
2023/04/25 17:33:16;;;;;;;4.97;2.55;;;;;;;16.62;39.38;98814.63;7765580;32;37721;-88
2023/04/25 17:37:32;;;;;;;4.05;2.30;;;;;;;15.94;40.21;98818.28;7756563;32;40164;-89
2023/04/25 17:41:48;;;;;;;4.30;2.35;;;;;;;16.00;40.08;98825.19;7743677;32;39893;-87
2023/04/25 17:46:05;;;;;;;3.25;1.85;;;;;;;16.07;40.32;98827.44;7765438;32;37518;-88
2023/04/25 17:50:22;;;;;;;3.37;2.10;;;;;;;15.63;40.93;98833.09;7765370;32;37884;-87
2023/04/25 17:54:38;;;;;;;3.47;2.10;;;;;;;15.57;40.85;98842.63;7755823;32;40084;-87
2023/04/25 17:58:55;;;;;;;4.57;2.33;;;;;;;15.50;40.99;98853.31;7738265;32;41559;-87
2023/04/25 18:03:11;;;;;;;4.60;2.58;;;;;;;15.24;42.11;98867.91;7738176;32;37678;-87
2023/04/25 18:07:28;;;;;;;4.57;2.97;;;;;;;14.40;43.70;98876.28;7738240;32;37086;-88
2023/04/25 18:11:45;;;;;;;6.22;3.05;;;;;;;14.14;44.37;98886.34;7760680;32;40006;-89
2023/04/25 18:16:02;;;;;;;7.72;3.10;;;;;;;14.13;44.75;98891.03;7763829;32;40828;-87
2023/04/25 18:20:21;;;;;;;8.13;4.05;;;;;;;14.01;46.10;98893.56;7764963;32;38013;-87
2023/04/25 18:24:37;;;;;;;6.47;3.40;;;;;;;13.88;45.81;98898.84;7764998;32;37496;-86
2023/04/25 18:28:53;;;;;;;6.45;3.22;;;;;;;13.83;46.17;98909.09;7738385;32;39439;-85
2023/04/25 18:33:12;;;;;;;6.00;3.50;;;;;;;13.77;47.13;98913.13;7740311;32;40786;-87
2023/04/25 18:37:32;;;;;;;7.12;3.55;;;;;;;13.69;47.22;98918.22;7735571;32;37961;-87
2023/04/25 18:41:48;;;;;;;15.23;8.07;;;;;;;13.63;47.12;98921.41;7738249;32;37108;-87
2023/04/25 18:46:15;;;;;;;9.45;5.25;;;;;;;13.19;48.85;98928.47;7746789;32;40038;-87
2023/04/25 18:50:32;;;;;;;10.88;5.45;;;;;;;13.33;48.77;98912.81;7745439;32;39783;-87
2023/04/25 18:54:48;;;;;;;21.95;13.93;;;;;;;13.31;48.80;98926.00;7751781;32;37932;-89
2023/04/25 18:59:05;;;;;;;9.98;5.55;;;;;;;13.12;49.40;98934.37;7764826;32;37270;-88
2023/04/25 19:03:21;;;;;;;7.15;3.72;;;;;;;12.64;51.08;98946.66;7764969;32;40161;-88
2023/04/25 19:07:39;;;;;;;5.30;3.47;;;;;;;12.95;49.96;98940.50;7765075;32;40260;-86
2023/04/25 19:11:56;;;;;;;5.50;3.40;;;;;;;12.87;50.39;98942.06;7745858;32;37984;-86
2023/04/25 19:16:13;;;;;;;5.75;2.92;;;;;;;12.76;51.14;98946.94;7736882;32;37126;-87
2023/04/25 19:20:30;;;;;;;6.03;3.70;;;;;;;12.65;51.36;98942.81;7737207;32;39414;-88
2023/04/25 19:24:46;;;;;;;10.32;7.70;;;;;;;12.54;51.25;98944.16;7736885;32;40994;-88
2023/04/25 19:29:18;;;;;;;11.25;5.05;;;;;;;12.63;51.28;98946.97;7736855;32;38554;-88
2023/04/25 19:33:34;;;;;;;9.38;5.40;;;;;;;12.72;50.95;98943.19;7736601;32;37200;-88
2023/04/25 19:37:51;;;;;;;9.93;5.72;;;;;;;12.49;51.42;98944.25;7736849;32;40592;-86
2023/04/25 19:42:07;;;;;;;8.65;4.45;;;;;;;12.59;51.23;98944.03;7735650;32;39850;-90
2023/04/25 19:46:24;;;;;;;5.82;3.80;;;;;;;12.60;51.12;98945.66;7748039;32;37893;-85
2023/04/25 19:50:41;;;;;;;6.28;3.50;;;;;;;12.65;52.01;98942.00;7752687;32;37108;-85
2023/04/25 19:55:01;;;;;;;6.12;3.55;;;;;;;12.55;51.62;98953.94;7743741;32;39000;-84
2023/04/25 19:59:17;;;;;;;4.53;3.05;;;;;;;12.39;52.09;98943.31;7744240;32;39601;-83
2023/04/25 20:03:33;;;;;;;5.20;3.30;;;;;;;12.54;51.49;98952.34;7750095;32;37976;-86
2023/04/25 20:07:50;;;;;;;8.88;3.62;;;;;;;12.46;51.46;98955.78;7751469;32;37010;-84
2023/04/25 20:12:08;;;;;;;6.10;3.50;;;;;;;12.46;51.44;98948.41;7751154;32;39392;-85